sensor_id;sensor_type;location;lat;lon;timestamp;P1;durP1;ratioP1;P2;durP2;ratioP2
39600;SDS011;25297;44.758;11.310;2023-05-13T00:01:50;9.63;;;4.72;;
39600;SDS011;25297;44.758;11.310;2023-05-13T00:04:16;8.30;;;6.20;;
39600;SDS011;25297;44.758;11.310;2023-05-13T00:06:41;5.38;;;4.32;;
39600;SDS011;25297;44.758;11.310;2023-05-13T00:09:07;9.02;;;5.50;;
39600;SDS011;25297;44.758;11.310;2023-05-13T00:11:33;6.10;;;5.00;;
39600;SDS011;25297;44.758;11.310;2023-05-13T00:13:58;6.05;;;4.65;;
39600;SDS011;25297;44.758;11.310;2023-05-13T00:16:24;5.03;;;4.38;;
39600;SDS011;25297;44.758;11.310;2023-05-13T00:18:51;6.20;;;4.43;;
39600;SDS011;25297;44.758;11.310;2023-05-13T00:21:18;7.70;;;5.43;;
39600;SDS011;25297;44.758;11.310;2023-05-13T00:23:43;7.40;;;5.13;;
39600;SDS011;25297;44.758;11.310;2023-05-13T00:26:09;8.35;;;4.65;;
39600;SDS011;25297;44.758;11.310;2023-05-13T00:28:34;5.95;;;4.28;;
39600;SDS011;25297;44.758;11.310;2023-05-13T00:31:00;7.88;;;4.05;;
39600;SDS011;25297;44.758;11.310;2023-05-13T00:33:26;6.72;;;4.45;;
39600;SDS011;25297;44.758;11.310;2023-05-13T00:35:52;5.05;;;4.55;;
39600;SDS011;25297;44.758;11.310;2023-05-13T00:38:17;6.15;;;3.45;;
39600;SDS011;25297;44.758;11.310;2023-05-13T00:40:43;5.38;;;3.80;;
39600;SDS011;25297;44.758;11.310;2023-05-13T00:43:09;8.20;;;4.60;;
39600;SDS011;25297;44.758;11.310;2023-05-13T00:45:35;9.80;;;4.63;;
39600;SDS011;25297;44.758;11.310;2023-05-13T00:48:01;7.35;;;3.95;;
39600;SDS011;25297;44.758;11.310;2023-05-13T00:50:30;5.63;;;4.35;;
39600;SDS011;25297;44.758;11.310;2023-05-13T00:52:57;6.13;;;4.43;;
39600;SDS011;25297;44.758;11.310;2023-05-13T00:55:23;9.90;;;4.88;;
39600;SDS011;25297;44.758;11.310;2023-05-13T00:57:50;5.93;;;4.63;;
39600;SDS011;25297;44.758;11.310;2023-05-13T01:00:15;10.57;;;4.93;;
39600;SDS011;25297;44.758;11.310;2023-05-13T01:05:21;7.95;;;4.90;;
39600;SDS011;25297;44.758;11.310;2023-05-13T01:10:46;7.38;;;4.45;;
39600;SDS011;25297;44.758;11.310;2023-05-13T01:13:25;4.70;;;4.15;;
39600;SDS011;25297;44.758;11.310;2023-05-13T01:18:36;6.10;;;5.10;;
39600;SDS011;25297;44.758;11.310;2023-05-13T01:21:34;8.63;;;4.60;;
39600;SDS011;25297;44.758;11.310;2023-05-13T01:24:01;9.05;;;4.93;;
39600;SDS011;25297;44.758;11.310;2023-05-13T01:26:26;7.75;;;5.07;;
39600;SDS011;25297;44.758;11.310;2023-05-13T01:28:52;11.85;;;5.25;;
39600;SDS011;25297;44.758;11.310;2023-05-13T01:31:18;5.68;;;4.15;;
39600;SDS011;25297;44.758;11.310;2023-05-13T01:33:46;8.45;;;4.68;;
39600;SDS011;25297;44.758;11.310;2023-05-13T01:36:13;6.32;;;4.57;;
39600;SDS011;25297;44.758;11.310;2023-05-13T01:38:39;9.07;;;4.90;;
39600;SDS011;25297;44.758;11.310;2023-05-13T01:41:05;7.85;;;6.25;;
39600;SDS011;25297;44.758;11.310;2023-05-13T01:43:31;6.55;;;5.32;;
39600;SDS011;25297;44.758;11.310;2023-05-13T01:45:57;10.93;;;6.00;;
39600;SDS011;25297;44.758;11.310;2023-05-13T01:48:24;7.22;;;5.63;;
39600;SDS011;25297;44.758;11.310;2023-05-13T01:50:50;9.73;;;6.70;;
39600;SDS011;25297;44.758;11.310;2023-05-13T01:53:16;8.10;;;6.35;;
39600;SDS011;25297;44.758;11.310;2023-05-13T01:55:43;13.57;;;7.28;;
39600;SDS011;25297;44.758;11.310;2023-05-13T01:58:08;9.20;;;7.07;;
39600;SDS011;25297;44.758;11.310;2023-05-13T02:00:34;10.52;;;7.15;;
39600;SDS011;25297;44.758;11.310;2023-05-13T02:03:00;9.75;;;6.68;;
39600;SDS011;25297;44.758;11.310;2023-05-13T02:05:25;13.07;;;7.43;;
39600;SDS011;25297;44.758;11.310;2023-05-13T02:07:51;12.52;;;7.40;;
39600;SDS011;25297;44.758;11.310;2023-05-13T02:10:17;12.27;;;7.40;;
39600;SDS011;25297;44.758;11.310;2023-05-13T02:12:42;14.02;;;7.93;;
39600;SDS011;25297;44.758;11.310;2023-05-13T02:15:09;10.63;;;8.13;;
39600;SDS011;25297;44.758;11.310;2023-05-13T02:17:35;9.40;;;7.50;;
39600;SDS011;25297;44.758;11.310;2023-05-13T02:20:00;12.70;;;8.10;;
39600;SDS011;25297;44.758;11.310;2023-05-13T02:22:26;10.45;;;7.40;;
39600;SDS011;25297;44.758;11.310;2023-05-13T02:24:51;17.75;;;8.80;;
39600;SDS011;25297;44.758;11.310;2023-05-13T02:27:17;14.25;;;9.68;;
39600;SDS011;25297;44.758;11.310;2023-05-13T02:29:44;12.70;;;8.60;;
39600;SDS011;25297;44.758;11.310;2023-05-13T02:32:10;13.20;;;9.05;;
39600;SDS011;25297;44.758;11.310;2023-05-13T02:34:35;12.07;;;8.68;;
39600;SDS011;25297;44.758;11.310;2023-05-13T02:37:02;13.88;;;9.32;;
39600;SDS011;25297;44.758;11.310;2023-05-13T02:39:27;14.57;;;9.93;;
39600;SDS011;25297;44.758;11.310;2023-05-13T02:41:53;12.43;;;9.35;;
39600;SDS011;25297;44.758;11.310;2023-05-13T02:44:19;14.65;;;9.02;;
39600;SDS011;25297;44.758;11.310;2023-05-13T02:46:44;15.05;;;9.63;;
39600;SDS011;25297;44.758;11.310;2023-05-13T02:49:10;12.60;;;8.95;;
39600;SDS011;25297;44.758;11.310;2023-05-13T02:51:36;16.92;;;10.32;;
39600;SDS011;25297;44.758;11.310;2023-05-13T02:54:01;14.85;;;10.07;;
39600;SDS011;25297;44.758;11.310;2023-05-13T02:56:27;12.35;;;9.18;;
39600;SDS011;25297;44.758;11.310;2023-05-13T02:58:53;16.17;;;10.07;;
39600;SDS011;25297;44.758;11.310;2023-05-13T03:01:18;15.70;;;8.93;;
39600;SDS011;25297;44.758;11.310;2023-05-13T03:03:44;14.45;;;10.27;;
39600;SDS011;25297;44.758;11.310;2023-05-13T03:06:10;12.32;;;10.20;;
39600;SDS011;25297;44.758;11.310;2023-05-13T03:08:36;14.95;;;11.13;;
39600;SDS011;25297;44.758;11.310;2023-05-13T03:11:01;14.18;;;9.95;;
39600;SDS011;25297;44.758;11.310;2023-05-13T03:13:28;14.18;;;10.23;;
39600;SDS011;25297;44.758;11.310;2023-05-13T03:15:54;14.68;;;10.63;;
39600;SDS011;25297;44.758;11.310;2023-05-13T03:18:20;17.63;;;10.55;;
39600;SDS011;25297;44.758;11.310;2023-05-13T03:20:45;17.80;;;11.05;;
39600;SDS011;25297;44.758;11.310;2023-05-13T03:23:11;15.90;;;9.35;;
39600;SDS011;25297;44.758;11.310;2023-05-13T03:25:37;13.50;;;10.52;;
39600;SDS011;25297;44.758;11.310;2023-05-13T03:28:02;15.88;;;10.85;;
39600;SDS011;25297;44.758;11.310;2023-05-13T03:30:28;19.77;;;10.98;;
39600;SDS011;25297;44.758;11.310;2023-05-13T03:32:54;20.52;;;11.95;;
39600;SDS011;25297;44.758;11.310;2023-05-13T03:35:20;19.02;;;12.68;;
39600;SDS011;25297;44.758;11.310;2023-05-13T03:37:46;15.13;;;9.93;;
39600;SDS011;25297;44.758;11.310;2023-05-13T03:40:12;14.77;;;10.55;;
39600;SDS011;25297;44.758;11.310;2023-05-13T03:42:37;16.15;;;11.77;;
39600;SDS011;25297;44.758;11.310;2023-05-13T03:45:03;17.15;;;11.73;;
39600;SDS011;25297;44.758;11.310;2023-05-13T03:47:29;18.13;;;11.75;;
39600;SDS011;25297;44.758;11.310;2023-05-13T03:49:55;19.45;;;12.45;;
39600;SDS011;25297;44.758;11.310;2023-05-13T03:52:20;16.90;;;12.85;;
39600;SDS011;25297;44.758;11.310;2023-05-13T03:54:46;18.88;;;13.13;;
39600;SDS011;25297;44.758;11.310;2023-05-13T03:57:11;18.38;;;13.02;;
39600;SDS011;25297;44.758;11.310;2023-05-13T03:59:37;19.02;;;13.60;;
39600;SDS011;25297;44.758;11.310;2023-05-13T04:02:03;19.15;;;14.32;;
39600;SDS011;25297;44.758;11.310;2023-05-13T04:04:28;24.55;;;15.60;;
39600;SDS011;25297;44.758;11.310;2023-05-13T04:06:54;21.02;;;13.45;;
39600;SDS011;25297;44.758;11.310;2023-05-13T04:09:20;18.88;;;14.00;;
39600;SDS011;25297;44.758;11.310;2023-05-13T04:11:45;21.90;;;14.38;;
39600;SDS011;25297;44.758;11.310;2023-05-13T04:14:11;20.23;;;14.77;;
39600;SDS011;25297;44.758;11.310;2023-05-13T04:16:37;23.75;;;15.95;;
39600;SDS011;25297;44.758;11.310;2023-05-13T04:19:02;20.13;;;15.02;;
39600;SDS011;25297;44.758;11.310;2023-05-13T04:21:28;20.17;;;14.23;;
39600;SDS011;25297;44.758;11.310;2023-05-13T04:23:53;18.17;;;13.95;;
39600;SDS011;25297;44.758;11.310;2023-05-13T04:26:19;19.67;;;14.27;;
39600;SDS011;25297;44.758;11.310;2023-05-13T04:28:45;19.08;;;13.45;;
39600;SDS011;25297;44.758;11.310;2023-05-13T04:31:11;23.38;;;15.07;;
39600;SDS011;25297;44.758;11.310;2023-05-13T04:33:37;23.05;;;13.75;;
39600;SDS011;25297;44.758;11.310;2023-05-13T04:36:02;18.33;;;13.30;;
39600;SDS011;25297;44.758;11.310;2023-05-13T04:38:29;18.05;;;12.00;;
39600;SDS011;25297;44.758;11.310;2023-05-13T04:40:55;24.33;;;13.98;;
39600;SDS011;25297;44.758;11.310;2023-05-13T04:43:21;15.88;;;11.27;;
39600;SDS011;25297;44.758;11.310;2023-05-13T04:45:47;18.50;;;12.73;;
39600;SDS011;25297;44.758;11.310;2023-05-13T04:48:13;16.08;;;11.43;;
39600;SDS011;25297;44.758;11.310;2023-05-13T04:50:47;17.40;;;13.50;;
39600;SDS011;25297;44.758;11.310;2023-05-13T04:53:14;20.80;;;12.02;;
39600;SDS011;25297;44.758;11.310;2023-05-13T04:55:40;17.20;;;11.38;;
39600;SDS011;25297;44.758;11.310;2023-05-13T04:58:06;16.73;;;12.02;;
39600;SDS011;25297;44.758;11.310;2023-05-13T05:00:31;17.95;;;12.23;;
39600;SDS011;25297;44.758;11.310;2023-05-13T05:02:57;19.52;;;11.95;;
39600;SDS011;25297;44.758;11.310;2023-05-13T05:05:23;17.58;;;12.32;;
39600;SDS011;25297;44.758;11.310;2023-05-13T05:07:48;15.00;;;10.60;;
39600;SDS011;25297;44.758;11.310;2023-05-13T05:10:14;17.45;;;11.55;;
39600;SDS011;25297;44.758;11.310;2023-05-13T05:12:40;18.58;;;10.65;;
39600;SDS011;25297;44.758;11.310;2023-05-13T05:15:06;18.63;;;11.85;;
39600;SDS011;25297;44.758;11.310;2023-05-13T05:17:40;26.90;;;13.10;;
39600;SDS011;25297;44.758;11.310;2023-05-13T05:20:08;23.40;;;12.52;;
39600;SDS011;25297;44.758;11.310;2023-05-13T05:22:35;22.85;;;13.20;;
39600;SDS011;25297;44.758;11.310;2023-05-13T05:25:02;16.58;;;12.10;;
39600;SDS011;25297;44.758;11.310;2023-05-13T05:27:28;16.83;;;12.32;;
39600;SDS011;25297;44.758;11.310;2023-05-13T05:29:53;18.10;;;12.77;;
39600;SDS011;25297;44.758;11.310;2023-05-13T05:32:21;17.40;;;12.30;;
39600;SDS011;25297;44.758;11.310;2023-05-13T05:34:47;24.85;;;12.68;;
39600;SDS011;25297;44.758;11.310;2023-05-13T05:37:13;26.45;;;13.90;;
39600;SDS011;25297;44.758;11.310;2023-05-13T05:39:38;19.40;;;13.18;;
39600;SDS011;25297;44.758;11.310;2023-05-13T05:42:05;22.77;;;13.60;;
39600;SDS011;25297;44.758;11.310;2023-05-13T05:44:31;17.77;;;13.18;;
39600;SDS011;25297;44.758;11.310;2023-05-13T05:46:57;22.73;;;14.30;;
39600;SDS011;25297;44.758;11.310;2023-05-13T05:49:23;21.00;;;13.85;;
39600;SDS011;25297;44.758;11.310;2023-05-13T05:51:48;25.42;;;14.32;;
39600;SDS011;25297;44.758;11.310;2023-05-13T05:54:14;25.20;;;15.10;;
39600;SDS011;25297;44.758;11.310;2023-05-13T05:56:40;27.27;;;15.52;;
39600;SDS011;25297;44.758;11.310;2023-05-13T05:59:05;25.88;;;16.33;;
39600;SDS011;25297;44.758;11.310;2023-05-13T06:01:31;29.38;;;17.05;;
39600;SDS011;25297;44.758;11.310;2023-05-13T06:03:58;29.48;;;17.75;;
39600;SDS011;25297;44.758;11.310;2023-05-13T06:06:24;27.92;;;18.02;;
39600;SDS011;25297;44.758;11.310;2023-05-13T06:08:49;31.13;;;17.90;;
39600;SDS011;25297;44.758;11.310;2023-05-13T06:11:15;31.77;;;19.08;;
39600;SDS011;25297;44.758;11.310;2023-05-13T06:13:41;32.67;;;19.58;;
39600;SDS011;25297;44.758;11.310;2023-05-13T06:16:08;37.67;;;20.30;;
39600;SDS011;25297;44.758;11.310;2023-05-13T06:18:33;35.05;;;20.90;;
39600;SDS011;25297;44.758;11.310;2023-05-13T06:20:59;40.83;;;21.55;;
39600;SDS011;25297;44.758;11.310;2023-05-13T06:23:24;42.95;;;20.00;;
39600;SDS011;25297;44.758;11.310;2023-05-13T06:25:50;39.38;;;19.95;;
39600;SDS011;25297;44.758;11.310;2023-05-13T06:28:16;32.05;;;17.92;;
39600;SDS011;25297;44.758;11.310;2023-05-13T06:30:42;30.45;;;17.80;;
39600;SDS011;25297;44.758;11.310;2023-05-13T06:33:08;35.58;;;17.38;;
39600;SDS011;25297;44.758;11.310;2023-05-13T06:35:35;33.90;;;18.63;;
39600;SDS011;25297;44.758;11.310;2023-05-13T06:38:01;26.75;;;16.38;;
39600;SDS011;25297;44.758;11.310;2023-05-13T06:40:27;32.50;;;16.85;;
39600;SDS011;25297;44.758;11.310;2023-05-13T06:42:52;27.08;;;16.42;;
39600;SDS011;25297;44.758;11.310;2023-05-13T06:45:18;28.88;;;16.55;;
39600;SDS011;25297;44.758;11.310;2023-05-13T06:47:48;34.70;;;18.05;;
39600;SDS011;25297;44.758;11.310;2023-05-13T06:50:14;31.35;;;17.00;;
39600;SDS011;25297;44.758;11.310;2023-05-13T06:52:40;31.02;;;16.83;;
39600;SDS011;25297;44.758;11.310;2023-05-13T06:55:06;32.60;;;17.90;;
39600;SDS011;25297;44.758;11.310;2023-05-13T06:57:32;32.67;;;16.42;;
39600;SDS011;25297;44.758;11.310;2023-05-13T06:59:58;27.60;;;15.82;;
39600;SDS011;25297;44.758;11.310;2023-05-13T07:02:24;31.25;;;15.95;;
39600;SDS011;25297;44.758;11.310;2023-05-13T07:04:50;31.00;;;16.45;;
39600;SDS011;25297;44.758;11.310;2023-05-13T07:07:16;27.33;;;16.60;;
39600;SDS011;25297;44.758;11.310;2023-05-13T07:09:41;31.30;;;15.65;;
39600;SDS011;25297;44.758;11.310;2023-05-13T07:12:07;27.80;;;14.75;;
39600;SDS011;25297;44.758;11.310;2023-05-13T07:14:35;24.92;;;15.32;;
39600;SDS011;25297;44.758;11.310;2023-05-13T07:17:01;26.42;;;15.10;;
39600;SDS011;25297;44.758;11.310;2023-05-13T07:19:28;30.27;;;14.48;;
39600;SDS011;25297;44.758;11.310;2023-05-13T07:21:54;30.88;;;14.40;;
39600;SDS011;25297;44.758;11.310;2023-05-13T07:24:19;28.73;;;13.13;;
39600;SDS011;25297;44.758;11.310;2023-05-13T07:26:45;22.60;;;14.02;;
39600;SDS011;25297;44.758;11.310;2023-05-13T07:29:11;25.05;;;14.73;;
39600;SDS011;25297;44.758;11.310;2023-05-13T07:31:36;22.55;;;13.95;;
39600;SDS011;25297;44.758;11.310;2023-05-13T07:34:02;22.25;;;13.15;;
39600;SDS011;25297;44.758;11.310;2023-05-13T07:36:28;26.17;;;14.45;;
39600;SDS011;25297;44.758;11.310;2023-05-13T07:38:53;27.75;;;14.88;;
39600;SDS011;25297;44.758;11.310;2023-05-13T07:41:19;26.35;;;14.18;;
39600;SDS011;25297;44.758;11.310;2023-05-13T07:43:45;20.80;;;13.52;;
39600;SDS011;25297;44.758;11.310;2023-05-13T07:46:11;21.98;;;12.68;;
39600;SDS011;25297;44.758;11.310;2023-05-13T07:48:36;23.17;;;13.05;;
39600;SDS011;25297;44.758;11.310;2023-05-13T07:51:02;26.48;;;13.68;;
39600;SDS011;25297;44.758;11.310;2023-05-13T07:53:28;20.90;;;11.80;;
39600;SDS011;25297;44.758;11.310;2023-05-13T07:55:54;23.27;;;12.93;;
39600;SDS011;25297;44.758;11.310;2023-05-13T07:58:20;23.70;;;11.88;;
39600;SDS011;25297;44.758;11.310;2023-05-13T08:00:45;23.45;;;12.45;;
39600;SDS011;25297;44.758;11.310;2023-05-13T08:03:13;17.45;;;11.77;;
39600;SDS011;25297;44.758;11.310;2023-05-13T08:05:40;20.27;;;11.55;;
39600;SDS011;25297;44.758;11.310;2023-05-13T08:08:05;19.73;;;11.60;;
39600;SDS011;25297;44.758;11.310;2023-05-13T08:10:31;17.38;;;11.20;;
39600;SDS011;25297;44.758;11.310;2023-05-13T08:12:56;16.33;;;10.40;;
39600;SDS011;25297;44.758;11.310;2023-05-13T08:15:22;18.88;;;11.05;;
39600;SDS011;25297;44.758;11.310;2023-05-13T08:17:48;14.77;;;9.18;;
39600;SDS011;25297;44.758;11.310;2023-05-13T08:20:14;16.05;;;9.70;;
39600;SDS011;25297;44.758;11.310;2023-05-13T08:22:40;16.05;;;9.68;;
39600;SDS011;25297;44.758;11.310;2023-05-13T08:25:06;17.08;;;10.02;;
39600;SDS011;25297;44.758;11.310;2023-05-13T08:27:33;18.35;;;10.20;;
39600;SDS011;25297;44.758;11.310;2023-05-13T08:29:59;15.13;;;10.02;;
39600;SDS011;25297;44.758;11.310;2023-05-13T08:32:24;16.38;;;9.88;;
39600;SDS011;25297;44.758;11.310;2023-05-13T08:34:50;16.73;;;10.43;;
39600;SDS011;25297;44.758;11.310;2023-05-13T08:37:15;15.10;;;10.13;;
39600;SDS011;25297;44.758;11.310;2023-05-13T08:39:41;15.25;;;9.63;;
39600;SDS011;25297;44.758;11.310;2023-05-13T08:42:07;16.00;;;10.13;;
39600;SDS011;25297;44.758;11.310;2023-05-13T08:44:33;16.75;;;10.23;;
39600;SDS011;25297;44.758;11.310;2023-05-13T08:47:07;16.05;;;9.52;;
39600;SDS011;25297;44.758;11.310;2023-05-13T08:49:33;10.63;;;8.00;;
39600;SDS011;25297;44.758;11.310;2023-05-13T08:51:59;13.40;;;8.10;;
39600;SDS011;25297;44.758;11.310;2023-05-13T08:54:25;12.57;;;7.35;;
39600;SDS011;25297;44.758;11.310;2023-05-13T08:56:53;12.60;;;7.65;;
39600;SDS011;25297;44.758;11.310;2023-05-13T08:59:18;15.10;;;8.50;;
39600;SDS011;25297;44.758;11.310;2023-05-13T09:01:44;12.30;;;7.03;;
39600;SDS011;25297;44.758;11.310;2023-05-13T09:04:10;18.45;;;9.25;;
39600;SDS011;25297;44.758;11.310;2023-05-13T09:06:35;14.40;;;8.68;;
39600;SDS011;25297;44.758;11.310;2023-05-13T09:09:01;19.83;;;9.07;;
39600;SDS011;25297;44.758;11.310;2023-05-13T09:11:27;15.85;;;8.65;;
39600;SDS011;25297;44.758;11.310;2023-05-13T09:13:57;11.50;;;7.72;;
39600;SDS011;25297;44.758;11.310;2023-05-13T09:16:23;16.75;;;7.50;;
39600;SDS011;25297;44.758;11.310;2023-05-13T09:18:56;12.60;;;6.30;;
39600;SDS011;25297;44.758;11.310;2023-05-13T09:21:28;13.70;;;6.55;;
39600;SDS011;25297;44.758;11.310;2023-05-13T09:24:08;9.35;;;6.00;;
39600;SDS011;25297;44.758;11.310;2023-05-13T09:26:43;12.57;;;5.70;;
39600;SDS011;25297;44.758;11.310;2023-05-13T09:31:54;12.55;;;5.50;;
39600;SDS011;25297;44.758;11.310;2023-05-13T09:34:24;10.20;;;5.35;;
39600;SDS011;25297;44.758;11.310;2023-05-13T09:36:54;9.32;;;6.68;;
39600;SDS011;25297;44.758;11.310;2023-05-13T09:39:31;14.18;;;6.15;;
39600;SDS011;25297;44.758;11.310;2023-05-13T09:41:59;11.05;;;6.28;;
39600;SDS011;25297;44.758;11.310;2023-05-13T09:44:27;9.57;;;6.05;;
39600;SDS011;25297;44.758;11.310;2023-05-13T09:46:52;9.43;;;6.32;;
39600;SDS011;25297;44.758;11.310;2023-05-13T09:49:22;12.10;;;5.93;;
39600;SDS011;25297;44.758;11.310;2023-05-13T09:51:50;9.77;;;5.55;;
39600;SDS011;25297;44.758;11.310;2023-05-13T09:54:15;9.15;;;5.45;;
39600;SDS011;25297;44.758;11.310;2023-05-13T09:56:41;10.27;;;5.50;;
39600;SDS011;25297;44.758;11.310;2023-05-13T09:59:06;7.03;;;5.03;;
39600;SDS011;25297;44.758;11.310;2023-05-13T10:01:33;7.90;;;4.60;;
39600;SDS011;25297;44.758;11.310;2023-05-13T10:04:00;12.20;;;5.28;;
39600;SDS011;25297;44.758;11.310;2023-05-13T10:06:28;10.75;;;5.03;;
39600;SDS011;25297;44.758;11.310;2023-05-13T10:08:55;10.10;;;4.18;;
39600;SDS011;25297;44.758;11.310;2023-05-13T10:11:24;8.65;;;4.10;;
39600;SDS011;25297;44.758;11.310;2023-05-13T10:13:54;7.95;;;3.30;;
39600;SDS011;25297;44.758;11.310;2023-05-13T10:16:24;6.60;;;4.05;;
39600;SDS011;25297;44.758;11.310;2023-05-13T10:18:51;6.88;;;3.83;;
39600;SDS011;25297;44.758;11.310;2023-05-13T10:21:18;4.82;;;2.90;;
39600;SDS011;25297;44.758;11.310;2023-05-13T10:23:45;5.63;;;3.50;;
39600;SDS011;25297;44.758;11.310;2023-05-13T10:26:11;6.97;;;2.58;;
39600;SDS011;25297;44.758;11.310;2023-05-13T10:28:38;3.63;;;2.20;;
39600;SDS011;25297;44.758;11.310;2023-05-13T10:31:04;6.43;;;2.65;;
39600;SDS011;25297;44.758;11.310;2023-05-13T10:33:30;5.93;;;2.00;;
39600;SDS011;25297;44.758;11.310;2023-05-13T10:36:00;8.23;;;2.10;;
39600;SDS011;25297;44.758;11.310;2023-05-13T10:44:21;5.55;;;2.40;;
39600;SDS011;25297;44.758;11.310;2023-05-13T10:46:48;5.47;;;2.10;;
39600;SDS011;25297;44.758;11.310;2023-05-13T10:49:14;4.65;;;2.22;;
39600;SDS011;25297;44.758;11.310;2023-05-13T10:51:43;6.07;;;2.20;;
39600;SDS011;25297;44.758;11.310;2023-05-13T10:54:17;4.38;;;2.13;;
39600;SDS011;25297;44.758;11.310;2023-05-13T10:56:44;6.47;;;2.30;;
39600;SDS011;25297;44.758;11.310;2023-05-13T10:59:11;5.32;;;2.42;;
39600;SDS011;25297;44.758;11.310;2023-05-13T11:01:37;3.72;;;2.30;;
39600;SDS011;25297;44.758;11.310;2023-05-13T11:04:11;3.47;;;1.90;;
39600;SDS011;25297;44.758;11.310;2023-05-13T11:06:42;5.88;;;1.92;;
39600;SDS011;25297;44.758;11.310;2023-05-13T11:09:13;5.78;;;2.90;;
39600;SDS011;25297;44.758;11.310;2023-05-13T11:11:53;8.27;;;2.25;;
39600;SDS011;25297;44.758;11.310;2023-05-13T11:14:20;4.00;;;2.25;;
39600;SDS011;25297;44.758;11.310;2023-05-13T11:16:54;5.72;;;2.15;;
39600;SDS011;25297;44.758;11.310;2023-05-13T11:22:19;9.27;;;3.25;;
39600;SDS011;25297;44.758;11.310;2023-05-13T11:25:04;4.43;;;1.77;;
39600;SDS011;25297;44.758;11.310;2023-05-13T11:27:39;6.63;;;2.20;;
39600;SDS011;25297;44.758;11.310;2023-05-13T11:30:07;7.10;;;1.58;;
39600;SDS011;25297;44.758;11.310;2023-05-13T11:35:25;3.00;;;1.80;;
39600;SDS011;25297;44.758;11.310;2023-05-13T11:37:56;8.82;;;1.83;;
39600;SDS011;25297;44.758;11.310;2023-05-13T11:40:26;3.55;;;0.80;;
39600;SDS011;25297;44.758;11.310;2023-05-13T11:42:53;2.28;;;0.70;;
39600;SDS011;25297;44.758;11.310;2023-05-13T11:45:20;2.45;;;0.70;;
39600;SDS011;25297;44.758;11.310;2023-05-13T11:47:47;2.63;;;0.80;;
39600;SDS011;25297;44.758;11.310;2023-05-13T11:50:31;4.95;;;0.85;;
39600;SDS011;25297;44.758;11.310;2023-05-13T11:52:58;4.85;;;0.82;;
39600;SDS011;25297;44.758;11.310;2023-05-13T11:55:28;3.47;;;0.98;;
39600;SDS011;25297;44.758;11.310;2023-05-13T11:58:00;4.00;;;1.08;;
39600;SDS011;25297;44.758;11.310;2023-05-13T12:00:33;5.13;;;1.10;;
39600;SDS011;25297;44.758;11.310;2023-05-13T12:02:59;3.65;;;0.70;;
39600;SDS011;25297;44.758;11.310;2023-05-13T12:05:27;4.65;;;1.30;;
39600;SDS011;25297;44.758;11.310;2023-05-13T12:07:55;4.93;;;1.08;;
39600;SDS011;25297;44.758;11.310;2023-05-13T12:10:22;5.43;;;0.90;;
39600;SDS011;25297;44.758;11.310;2023-05-13T12:12:48;0.95;;;0.60;;
39600;SDS011;25297;44.758;11.310;2023-05-13T12:15:15;5.88;;;1.45;;
39600;SDS011;25297;44.758;11.310;2023-05-13T12:17:42;2.80;;;0.90;;
39600;SDS011;25297;44.758;11.310;2023-05-13T12:30:37;2.45;;;0.73;;
39600;SDS011;25297;44.758;11.310;2023-05-13T12:33:04;1.07;;;0.80;;
39600;SDS011;25297;44.758;11.310;2023-05-13T12:35:33;3.47;;;1.20;;
39600;SDS011;25297;44.758;11.310;2023-05-13T12:38:07;3.17;;;1.00;;
39600;SDS011;25297;44.758;11.310;2023-05-13T12:40:40;3.05;;;0.70;;
39600;SDS011;25297;44.758;11.310;2023-05-13T12:43:06;2.35;;;0.95;;
39600;SDS011;25297;44.758;11.310;2023-05-13T12:45:32;1.30;;;0.70;;
39600;SDS011;25297;44.758;11.310;2023-05-13T12:47:59;2.72;;;0.80;;
39600;SDS011;25297;44.758;11.310;2023-05-13T12:50:25;6.78;;;1.05;;
39600;SDS011;25297;44.758;11.310;2023-05-13T12:52:52;2.33;;;0.60;;
39600;SDS011;25297;44.758;11.310;2023-05-13T12:55:18;2.63;;;0.77;;
39600;SDS011;25297;44.758;11.310;2023-05-13T12:57:52;4.70;;;0.80;;
39600;SDS011;25297;44.758;11.310;2023-05-13T13:00:26;2.20;;;0.70;;
39600;SDS011;25297;44.758;11.310;2023-05-13T13:02:52;1.83;;;0.73;;
39600;SDS011;25297;44.758;11.310;2023-05-13T13:05:18;1.10;;;0.60;;
39600;SDS011;25297;44.758;11.310;2023-05-13T13:07:45;6.35;;;0.60;;
39600;SDS011;25297;44.758;11.310;2023-05-13T13:10:11;2.67;;;0.65;;
39600;SDS011;25297;44.758;11.310;2023-05-13T13:12:37;1.67;;;0.80;;
39600;SDS011;25297;44.758;11.310;2023-05-13T13:15:04;0.90;;;0.50;;
39600;SDS011;25297;44.758;11.310;2023-05-13T13:17:30;2.55;;;0.60;;
39600;SDS011;25297;44.758;11.310;2023-05-13T13:19:56;3.50;;;0.90;;
39600;SDS011;25297;44.758;11.310;2023-05-13T13:22:22;4.53;;;0.90;;
39600;SDS011;25297;44.758;11.310;2023-05-13T13:24:47;2.20;;;0.68;;
39600;SDS011;25297;44.758;11.310;2023-05-13T13:27:13;3.75;;;0.82;;
39600;SDS011;25297;44.758;11.310;2023-05-13T13:29:38;1.25;;;0.52;;
39600;SDS011;25297;44.758;11.310;2023-05-13T13:32:05;2.05;;;0.70;;
39600;SDS011;25297;44.758;11.310;2023-05-13T13:34:31;0.90;;;0.65;;
39600;SDS011;25297;44.758;11.310;2023-05-13T13:36:56;1.45;;;0.60;;
39600;SDS011;25297;44.758;11.310;2023-05-13T13:39:22;2.25;;;0.68;;
39600;SDS011;25297;44.758;11.310;2023-05-13T13:41:48;4.93;;;0.80;;
39600;SDS011;25297;44.758;11.310;2023-05-13T13:44:13;1.13;;;0.65;;
39600;SDS011;25297;44.758;11.310;2023-05-13T13:46:39;1.88;;;0.52;;
39600;SDS011;25297;44.758;11.310;2023-05-13T13:49:05;1.63;;;0.47;;
39600;SDS011;25297;44.758;11.310;2023-05-13T13:51:30;1.67;;;0.63;;
39600;SDS011;25297;44.758;11.310;2023-05-13T13:53:56;2.30;;;1.05;;
39600;SDS011;25297;44.758;11.310;2023-05-13T13:58:52;2.30;;;0.60;;
39600;SDS011;25297;44.758;11.310;2023-05-13T14:01:18;1.13;;;0.50;;
39600;SDS011;25297;44.758;11.310;2023-05-13T14:03:44;0.98;;;0.60;;
39600;SDS011;25297;44.758;11.310;2023-05-13T14:06:09;1.83;;;0.50;;
39600;SDS011;25297;44.758;11.310;2023-05-13T14:08:35;3.00;;;0.70;;
39600;SDS011;25297;44.758;11.310;2023-05-13T14:11:01;3.58;;;0.77;;
39600;SDS011;25297;44.758;11.310;2023-05-13T14:13:26;6.70;;;1.60;;
39600;SDS011;25297;44.758;11.310;2023-05-13T14:15:52;3.15;;;0.70;;
39600;SDS011;25297;44.758;11.310;2023-05-13T14:18:17;2.00;;;0.63;;
39600;SDS011;25297;44.758;11.310;2023-05-13T14:20:43;3.83;;;0.75;;
39600;SDS011;25297;44.758;11.310;2023-05-13T14:23:11;3.50;;;0.98;;
39600;SDS011;25297;44.758;11.310;2023-05-13T14:25:37;3.92;;;0.75;;
39600;SDS011;25297;44.758;11.310;2023-05-13T14:28:02;2.17;;;0.60;;
39600;SDS011;25297;44.758;11.310;2023-05-13T14:30:28;4.30;;;0.98;;
39600;SDS011;25297;44.758;11.310;2023-05-13T14:32:54;2.38;;;0.50;;
39600;SDS011;25297;44.758;11.310;2023-05-13T14:35:20;2.28;;;0.68;;
39600;SDS011;25297;44.758;11.310;2023-05-13T14:37:45;1.80;;;0.93;;
39600;SDS011;25297;44.758;11.310;2023-05-13T14:40:11;1.73;;;0.80;;
39600;SDS011;25297;44.758;11.310;2023-05-13T14:42:37;2.60;;;0.77;;
39600;SDS011;25297;44.758;11.310;2023-05-13T14:45:02;2.60;;;0.80;;
39600;SDS011;25297;44.758;11.310;2023-05-13T14:47:28;1.33;;;0.60;;
39600;SDS011;25297;44.758;11.310;2023-05-13T14:49:54;1.65;;;0.60;;
39600;SDS011;25297;44.758;11.310;2023-05-13T14:52:20;2.17;;;0.65;;
39600;SDS011;25297;44.758;11.310;2023-05-13T14:54:45;1.40;;;0.50;;
39600;SDS011;25297;44.758;11.310;2023-05-13T14:57:11;0.90;;;0.52;;